sensor_id;sensor_type;location;lat;lon;timestamp;temperature;humidity
73360;DHT22;63092;43.582;19.528;2022-12-05T00:01:20;5.90;99.90
73360;DHT22;63092;43.582;19.528;2022-12-05T00:03:47;5.90;99.90
73360;DHT22;63092;43.582;19.528;2022-12-05T00:06:13;5.90;99.90
73360;DHT22;63092;43.582;19.528;2022-12-05T00:08:39;5.90;99.90
73360;DHT22;63092;43.582;19.528;2022-12-05T00:11:14;5.90;99.90
73360;DHT22;63092;43.582;19.528;2022-12-05T00:13:41;5.90;99.90
73360;DHT22;63092;43.582;19.528;2022-12-05T00:16:12;5.80;99.90
73360;DHT22;63092;43.582;19.528;2022-12-05T00:18:38;5.70;99.90
73360;DHT22;63092;43.582;19.528;2022-12-05T00:21:05;5.70;99.90
73360;DHT22;63092;43.582;19.528;2022-12-05T00:23:31;5.60;99.90
73360;DHT22;63092;43.582;19.528;2022-12-05T00:26:01;5.60;99.90
73360;DHT22;63092;43.582;19.528;2022-12-05T00:28:27;5.60;99.90
73360;DHT22;63092;43.582;19.528;2022-12-05T00:30:53;5.70;99.90
73360;DHT22;63092;43.582;19.528;2022-12-05T00:33:19;5.70;99.90
73360;DHT22;63092;43.582;19.528;2022-12-05T00:35:44;5.70;99.90
73360;DHT22;63092;43.582;19.528;2022-12-05T00:38:10;5.80;99.90
73360;DHT22;63092;43.582;19.528;2022-12-05T00:40:36;5.80;99.90
73360;DHT22;63092;43.582;19.528;2022-12-05T00:43:01;5.80;99.90
73360;DHT22;63092;43.582;19.528;2022-12-05T00:45:27;5.80;99.90
73360;DHT22;63092;43.582;19.528;2022-12-05T00:47:53;5.80;99.90
73360;DHT22;63092;43.582;19.528;2022-12-05T00:50:19;5.80;99.90
73360;DHT22;63092;43.582;19.528;2022-12-05T00:52:44;5.80;99.90
73360;DHT22;63092;43.582;19.528;2022-12-05T00:55:10;5.70;99.90
73360;DHT22;63092;43.582;19.528;2022-12-05T00:57:36;5.70;99.90
73360;DHT22;63092;43.582;19.528;2022-12-05T01:00:04;5.70;99.90
73360;DHT22;63092;43.582;19.528;2022-12-05T01:02:30;5.60;99.90
73360;DHT22;63092;43.582;19.528;2022-12-05T01:04:55;5.60;99.90
73360;DHT22;63092;43.582;19.528;2022-12-05T01:07:21;5.60;99.90
73360;DHT22;63092;43.582;19.528;2022-12-05T01:09:47;5.70;99.90
73360;DHT22;63092;43.582;19.528;2022-12-05T01:12:13;5.50;99.90
73360;DHT22;63092;43.582;19.528;2022-12-05T01:14:38;5.60;99.90
73360;DHT22;63092;43.582;19.528;2022-12-05T01:17:04;5.60;99.90
73360;DHT22;63092;43.582;19.528;2022-12-05T01:19:31;5.60;99.90
73360;DHT22;63092;43.582;19.528;2022-12-05T01:21:58;5.70;99.90
73360;DHT22;63092;43.582;19.528;2022-12-05T01:24:25;5.70;99.90
73360;DHT22;63092;43.582;19.528;2022-12-05T01:26:51;5.70;99.90
73360;DHT22;63092;43.582;19.528;2022-12-05T01:29:19;5.70;99.90
73360;DHT22;63092;43.582;19.528;2022-12-05T01:31:45;5.80;99.90
73360;DHT22;63092;43.582;19.528;2022-12-05T01:34:13;5.70;99.90
73360;DHT22;63092;43.582;19.528;2022-12-05T01:36:39;5.80;99.90
73360;DHT22;63092;43.582;19.528;2022-12-05T01:39:06;5.80;99.90
73360;DHT22;63092;43.582;19.528;2022-12-05T01:41:34;5.80;99.90
73360;DHT22;63092;43.582;19.528;2022-12-05T01:44:05;5.80;99.90
73360;DHT22;63092;43.582;19.528;2022-12-05T01:46:37;5.60;99.90
73360;DHT22;63092;43.582;19.528;2022-12-05T01:49:30;5.70;99.90
73360;DHT22;63092;43.582;19.528;2022-12-05T01:52:21;5.70;99.90
73360;DHT22;63092;43.582;19.528;2022-12-05T01:54:47;5.70;99.90
73360;DHT22;63092;43.582;19.528;2022-12-05T01:57:14;5.70;99.90
73360;DHT22;63092;43.582;19.528;2022-12-05T01:59:49;5.60;99.90
73360;DHT22;63092;43.582;19.528;2022-12-05T02:02:16;5.70;99.90
73360;DHT22;63092;43.582;19.528;2022-12-05T02:05:11;5.70;99.90
73360;DHT22;63092;43.582;19.528;2022-12-05T02:07:38;5.70;99.90
73360;DHT22;63092;43.582;19.528;2022-12-05T02:10:05;5.70;99.90
73360;DHT22;63092;43.582;19.528;2022-12-05T02:12:32;5.70;99.90
73360;DHT22;63092;43.582;19.528;2022-12-05T02:18:16;5.60;99.90
73360;DHT22;63092;43.582;19.528;2022-12-05T02:32:48;5.00;99.90
73360;DHT22;63092;43.582;19.528;2022-12-05T02:43:44;5.10;99.90
73360;DHT22;63092;43.582;19.528;2022-12-05T02:46:16;5.20;99.90
73360;DHT22;63092;43.582;19.528;2022-12-05T02:48:45;5.30;99.90
73360;DHT22;63092;43.582;19.528;2022-12-05T02:51:13;5.30;99.90
73360;DHT22;63092;43.582;19.528;2022-12-05T02:53:43;5.40;99.90
73360;DHT22;63092;43.582;19.528;2022-12-05T02:56:10;5.40;99.90
73360;DHT22;63092;43.582;19.528;2022-12-05T02:58:50;5.30;99.90
73360;DHT22;63092;43.582;19.528;2022-12-05T03:01:19;5.30;99.90
73360;DHT22;63092;43.582;19.528;2022-12-05T03:03:46;5.20;99.90
73360;DHT22;63092;43.582;19.528;2022-12-05T03:06:15;5.20;99.90
73360;DHT22;63092;43.582;19.528;2022-12-05T03:08:53;5.10;99.90
73360;DHT22;63092;43.582;19.528;2022-12-05T03:11:20;5.10;99.90
73360;DHT22;63092;43.582;19.528;2022-12-05T03:13:56;5.20;99.90
73360;DHT22;63092;43.582;19.528;2022-12-05T03:16:27;5.10;99.90
73360;DHT22;63092;43.582;19.528;2022-12-05T03:18:57;5.10;99.90
73360;DHT22;63092;43.582;19.528;2022-12-05T03:21:38;5.10;99.90
73360;DHT22;63092;43.582;19.528;2022-12-05T03:24:10;5.20;99.90
73360;DHT22;63092;43.582;19.528;2022-12-05T03:37:45;5.20;99.90
73360;DHT22;63092;43.582;19.528;2022-12-05T03:40:31;5.30;99.90
73360;DHT22;63092;43.582;19.528;2022-12-05T03:43:20;5.30;99.90
73360;DHT22;63092;43.582;19.528;2022-12-05T03:46:13;5.40;99.90
73360;DHT22;63092;43.582;19.528;2022-12-05T03:48:57;5.40;99.90
73360;DHT22;63092;43.582;19.528;2022-12-05T03:51:31;5.30;99.90
73360;DHT22;63092;43.582;19.528;2022-12-05T03:56:34;5.20;99.90
73360;DHT22;63092;43.582;19.528;2022-12-05T03:59:07;5.30;99.90
73360;DHT22;63092;43.582;19.528;2022-12-05T04:01:35;5.30;99.90
73360;DHT22;63092;43.582;19.528;2022-12-05T04:04:08;5.40;99.90
73360;DHT22;63092;43.582;19.528;2022-12-05T04:06:38;5.30;99.90
73360;DHT22;63092;43.582;19.528;2022-12-05T04:09:06;5.20;99.90
73360;DHT22;63092;43.582;19.528;2022-12-05T04:11:44;5.20;99.90
73360;DHT22;63092;43.582;19.528;2022-12-05T04:14:15;5.30;99.90
73360;DHT22;63092;43.582;19.528;2022-12-05T04:22:17;5.40;99.90
73360;DHT22;63092;43.582;19.528;2022-12-05T04:24:43;5.30;99.90
73360;DHT22;63092;43.582;19.528;2022-12-05T04:30:10;5.20;99.90
73360;DHT22;63092;43.582;19.528;2022-12-05T04:35:54;5.00;99.90
73360;DHT22;63092;43.582;19.528;2022-12-05T04:38:38;5.00;99.90
73360;DHT22;63092;43.582;19.528;2022-12-05T04:41:11;5.00;99.90
73360;DHT22;63092;43.582;19.528;2022-12-05T04:43:40;5.00;99.90
73360;DHT22;63092;43.582;19.528;2022-12-05T04:46:09;4.80;99.90
73360;DHT22;63092;43.582;19.528;2022-12-05T04:48:38;4.70;99.90
73360;DHT22;63092;43.582;19.528;2022-12-05T04:51:08;4.80;99.90
73360;DHT22;63092;43.582;19.528;2022-12-05T04:53:37;4.80;99.90
73360;DHT22;63092;43.582;19.528;2022-12-05T04:56:06;4.80;99.90
73360;DHT22;63092;43.582;19.528;2022-12-05T04:58:33;4.80;99.90
73360;DHT22;63092;43.582;19.528;2022-12-05T05:04:13;4.80;99.90
73360;DHT22;63092;43.582;19.528;2022-12-05T05:06:41;4.80;99.90
73360;DHT22;63092;43.582;19.528;2022-12-05T05:09:08;4.90;99.90
73360;DHT22;63092;43.582;19.528;2022-12-05T05:11:35;4.90;99.90
73360;DHT22;63092;43.582;19.528;2022-12-05T05:14:01;4.90;99.90
73360;DHT22;63092;43.582;19.528;2022-12-05T05:16:38;4.80;99.90
73360;DHT22;63092;43.582;19.528;2022-12-05T05:19:05;4.80;99.90
73360;DHT22;63092;43.582;19.528;2022-12-05T05:21:38;4.70;99.90
73360;DHT22;63092;43.582;19.528;2022-12-05T05:24:05;4.80;99.90
73360;DHT22;63092;43.582;19.528;2022-12-05T05:26:33;4.80;99.90
73360;DHT22;63092;43.582;19.528;2022-12-05T05:28:59;4.80;99.90
73360;DHT22;63092;43.582;19.528;2022-12-05T05:31:25;4.90;99.90
73360;DHT22;63092;43.582;19.528;2022-12-05T05:33:53;5.00;99.90
73360;DHT22;63092;43.582;19.528;2022-12-05T05:36:20;5.10;99.90
73360;DHT22;63092;43.582;19.528;2022-12-05T05:38:48;5.10;99.90
73360;DHT22;63092;43.582;19.528;2022-12-05T05:41:16;5.20;99.90
73360;DHT22;63092;43.582;19.528;2022-12-05T05:43:43;5.10;99.90
73360;DHT22;63092;43.582;19.528;2022-12-05T05:46:10;5.20;99.90
73360;DHT22;63092;43.582;19.528;2022-12-05T05:48:36;5.20;99.90
73360;DHT22;63092;43.582;19.528;2022-12-05T05:51:04;5.20;99.90
73360;DHT22;63092;43.582;19.528;2022-12-05T05:53:30;5.10;99.90
73360;DHT22;63092;43.582;19.528;2022-12-05T05:55:56;4.90;99.90
73360;DHT22;63092;43.582;19.528;2022-12-05T05:58:22;5.00;99.90
73360;DHT22;63092;43.582;19.528;2022-12-05T06:00:47;5.00;99.90
73360;DHT22;63092;43.582;19.528;2022-12-05T06:03:13;5.10;99.90
73360;DHT22;63092;43.582;19.528;2022-12-05T06:05:39;5.10;99.90
73360;DHT22;63092;43.582;19.528;2022-12-05T06:08:05;5.20;99.90
73360;DHT22;63092;43.582;19.528;2022-12-05T06:10:30;5.20;99.90
73360;DHT22;63092;43.582;19.528;2022-12-05T06:12:57;5.20;99.90
73360;DHT22;63092;43.582;19.528;2022-12-05T06:15:23;5.20;99.90
73360;DHT22;63092;43.582;19.528;2022-12-05T06:17:49;5.20;99.90
73360;DHT22;63092;43.582;19.528;2022-12-05T06:20:14;5.20;99.90
73360;DHT22;63092;43.582;19.528;2022-12-05T06:22:41;5.20;99.90
73360;DHT22;63092;43.582;19.528;2022-12-05T06:25:07;5.20;99.90
73360;DHT22;63092;43.582;19.528;2022-12-05T06:27:33;5.00;99.90
73360;DHT22;63092;43.582;19.528;2022-12-05T06:29:59;5.00;99.90
73360;DHT22;63092;43.582;19.528;2022-12-05T06:32:27;5.00;99.90
73360;DHT22;63092;43.582;19.528;2022-12-05T06:34:54;4.90;99.90
73360;DHT22;63092;43.582;19.528;2022-12-05T06:37:20;4.90;99.90
73360;DHT22;63092;43.582;19.528;2022-12-05T06:39:45;4.90;99.90
73360;DHT22;63092;43.582;19.528;2022-12-05T06:42:11;5.00;99.90
73360;DHT22;63092;43.582;19.528;2022-12-05T06:44:37;4.90;99.90
73360;DHT22;63092;43.582;19.528;2022-12-05T06:47:02;4.90;99.90
73360;DHT22;63092;43.582;19.528;2022-12-05T06:49:28;4.80;99.90
73360;DHT22;63092;43.582;19.528;2022-12-05T06:51:58;4.80;99.90
73360;DHT22;63092;43.582;19.528;2022-12-05T06:54:24;4.80;99.90
73360;DHT22;63092;43.582;19.528;2022-12-05T06:56:49;4.90;99.90
73360;DHT22;63092;43.582;19.528;2022-12-05T06:59:15;5.00;99.90
73360;DHT22;63092;43.582;19.528;2022-12-05T07:01:41;5.00;99.90
73360;DHT22;63092;43.582;19.528;2022-12-05T07:04:14;5.10;99.90
73360;DHT22;63092;43.582;19.528;2022-12-05T07:06:41;5.10;99.90
73360;DHT22;63092;43.582;19.528;2022-12-05T07:09:08;5.10;99.90
73360;DHT22;63092;43.582;19.528;2022-12-05T07:11:34;5.20;99.90
73360;DHT22;63092;43.582;19.528;2022-12-05T07:14:00;5.20;99.90
73360;DHT22;63092;43.582;19.528;2022-12-05T07:16:26;5.30;99.90
73360;DHT22;63092;43.582;19.528;2022-12-05T07:18:52;5.30;99.90
73360;DHT22;63092;43.582;19.528;2022-12-05T07:21:18;4.60;99.90
73360;DHT22;63092;43.582;19.528;2022-12-05T07:23:46;4.80;99.90
73360;DHT22;63092;43.582;19.528;2022-12-05T07:26:18;4.90;99.90
73360;DHT22;63092;43.582;19.528;2022-12-05T07:28:44;4.90;99.90
73360;DHT22;63092;43.582;19.528;2022-12-05T07:31:12;4.90;99.90
73360;DHT22;63092;43.582;19.528;2022-12-05T07:33:38;4.70;99.90
73360;DHT22;63092;43.582;19.528;2022-12-05T07:36:07;4.70;99.90
73360;DHT22;63092;43.582;19.528;2022-12-05T07:38:33;4.90;99.90
73360;DHT22;63092;43.582;19.528;2022-12-05T07:41:04;5.00;99.90
73360;DHT22;63092;43.582;19.528;2022-12-05T07:43:30;5.10;99.90
73360;DHT22;63092;43.582;19.528;2022-12-05T07:46:03;5.20;99.90
73360;DHT22;63092;43.582;19.528;2022-12-05T07:48:29;5.30;99.90
73360;DHT22;63092;43.582;19.528;2022-12-05T07:51:05;5.20;99.90
73360;DHT22;63092;43.582;19.528;2022-12-05T07:53:31;5.30;99.90
73360;DHT22;63092;43.582;19.528;2022-12-05T07:56:02;5.30;99.90
73360;DHT22;63092;43.582;19.528;2022-12-05T07:58:29;5.40;99.90
73360;DHT22;63092;43.582;19.528;2022-12-05T08:00:55;5.30;99.90
73360;DHT22;63092;43.582;19.528;2022-12-05T08:03:22;5.40;99.90
73360;DHT22;63092;43.582;19.528;2022-12-05T08:05:48;5.10;99.90
73360;DHT22;63092;43.582;19.528;2022-12-05T08:08:14;5.20;99.90
73360;DHT22;63092;43.582;19.528;2022-12-05T08:10:40;5.20;99.90
73360;DHT22;63092;43.582;19.528;2022-12-05T08:13:06;5.20;99.90
73360;DHT22;63092;43.582;19.528;2022-12-05T08:15:34;5.30;99.90
73360;DHT22;63092;43.582;19.528;2022-12-05T08:18:01;5.40;99.90
73360;DHT22;63092;43.582;19.528;2022-12-05T08:20:26;5.50;99.90
73360;DHT22;63092;43.582;19.528;2022-12-05T08:22:53;5.50;99.90
73360;DHT22;63092;43.582;19.528;2022-12-05T08:25:19;5.50;99.90
73360;DHT22;63092;43.582;19.528;2022-12-05T08:27:45;5.40;99.90
73360;DHT22;63092;43.582;19.528;2022-12-05T08:30:10;5.30;99.90
73360;DHT22;63092;43.582;19.528;2022-12-05T08:32:36;5.40;99.90
73360;DHT22;63092;43.582;19.528;2022-12-05T08:35:02;5.40;99.90
73360;DHT22;63092;43.582;19.528;2022-12-05T08:37:28;5.40;99.90
73360;DHT22;63092;43.582;19.528;2022-12-05T08:39:53;5.40;99.90
73360;DHT22;63092;43.582;19.528;2022-12-05T08:42:19;5.50;99.90
73360;DHT22;63092;43.582;19.528;2022-12-05T08:44:45;5.60;99.90
73360;DHT22;63092;43.582;19.528;2022-12-05T08:47:10;5.50;99.90
73360;DHT22;63092;43.582;19.528;2022-12-05T08:49:36;5.50;99.90
73360;DHT22;63092;43.582;19.528;2022-12-05T08:52:02;5.50;99.90
73360;DHT22;63092;43.582;19.528;2022-12-05T08:54:28;5.70;99.90
73360;DHT22;63092;43.582;19.528;2022-12-05T08:56:53;5.80;99.90
73360;DHT22;63092;43.582;19.528;2022-12-05T08:59:19;5.90;99.90
73360;DHT22;63092;43.582;19.528;2022-12-05T09:01:45;5.70;99.90
73360;DHT22;63092;43.582;19.528;2022-12-05T09:04:11;5.40;99.90
73360;DHT22;63092;43.582;19.528;2022-12-05T09:06:36;5.50;99.90
73360;DHT22;63092;43.582;19.528;2022-12-05T09:09:05;5.60;99.90
73360;DHT22;63092;43.582;19.528;2022-12-05T09:11:34;5.60;99.90
73360;DHT22;63092;43.582;19.528;2022-12-05T09:14:01;5.70;99.90
73360;DHT22;63092;43.582;19.528;2022-12-05T09:16:30;5.80;99.90
73360;DHT22;63092;43.582;19.528;2022-12-05T09:18:57;6.00;99.90
73360;DHT22;63092;43.582;19.528;2022-12-05T09:21:26;5.50;99.90
73360;DHT22;63092;43.582;19.528;2022-12-05T09:23:52;5.70;99.90
73360;DHT22;63092;43.582;19.528;2022-12-05T09:26:20;5.70;99.90
73360;DHT22;63092;43.582;19.528;2022-12-05T09:28:48;5.70;99.90
73360;DHT22;63092;43.582;19.528;2022-12-05T09:31:18;5.90;99.90
73360;DHT22;63092;43.582;19.528;2022-12-05T09:33:44;6.00;99.90
73360;DHT22;63092;43.582;19.528;2022-12-05T09:38:41;6.30;99.90
73360;DHT22;63092;43.582;19.528;2022-12-05T09:52:38;6.10;99.90
73360;DHT22;63092;43.582;19.528;2022-12-05T09:55:15;6.00;99.90
73360;DHT22;63092;43.582;19.528;2022-12-05T09:57:46;5.90;99.90
73360;DHT22;63092;43.582;19.528;2022-12-05T10:00:15;5.90;99.90
73360;DHT22;63092;43.582;19.528;2022-12-05T10:05:28;6.00;99.90
73360;DHT22;63092;43.582;19.528;2022-12-05T10:11:08;6.10;99.90
73360;DHT22;63092;43.582;19.528;2022-12-05T10:16:08;6.10;99.90
73360;DHT22;63092;43.582;19.528;2022-12-05T10:18:47;6.20;99.90
73360;DHT22;63092;43.582;19.528;2022-12-05T10:21:26;6.00;99.90
73360;DHT22;63092;43.582;19.528;2022-12-05T10:23:57;6.00;99.90
73360;DHT22;63092;43.582;19.528;2022-12-05T10:26:33;6.00;99.90
73360;DHT22;63092;43.582;19.528;2022-12-05T10:31:34;6.10;99.90
73360;DHT22;63092;43.582;19.528;2022-12-05T10:34:33;6.20;99.90
73360;DHT22;63092;43.582;19.528;2022-12-05T10:39:36;5.80;99.90
73360;DHT22;63092;43.582;19.528;2022-12-05T10:42:03;5.90;99.90
73360;DHT22;63092;43.582;19.528;2022-12-05T10:44:30;6.00;99.90
73360;DHT22;63092;43.582;19.528;2022-12-05T10:46:56;6.00;99.90
73360;DHT22;63092;43.582;19.528;2022-12-05T10:49:23;6.10;99.90
73360;DHT22;63092;43.582;19.528;2022-12-05T10:51:49;5.80;99.90
73360;DHT22;63092;43.582;19.528;2022-12-05T10:54:23;5.90;99.90
73360;DHT22;63092;43.582;19.528;2022-12-05T10:56:51;6.10;99.90
73360;DHT22;63092;43.582;19.528;2022-12-05T10:59:23;6.20;99.90
73360;DHT22;63092;43.582;19.528;2022-12-05T11:01:52;6.40;99.90
73360;DHT22;63092;43.582;19.528;2022-12-05T11:04:29;6.30;99.90
73360;DHT22;63092;43.582;19.528;2022-12-05T11:07:03;6.20;99.90
73360;DHT22;63092;43.582;19.528;2022-12-05T11:09:36;6.30;99.90
73360;DHT22;63092;43.582;19.528;2022-12-05T11:14:31;6.30;99.90
73360;DHT22;63092;43.582;19.528;2022-12-05T11:17:00;6.30;99.90
73360;DHT22;63092;43.582;19.528;2022-12-05T11:19:33;6.40;99.90
73360;DHT22;63092;43.582;19.528;2022-12-05T11:22:00;6.40;99.90
73360;DHT22;63092;43.582;19.528;2022-12-05T11:26:55;6.20;99.90
73360;DHT22;63092;43.582;19.528;2022-12-05T11:29:37;6.20;99.90
73360;DHT22;63092;43.582;19.528;2022-12-05T11:32:04;6.00;99.90
73360;DHT22;63092;43.582;19.528;2022-12-05T11:34:41;6.00;99.90
73360;DHT22;63092;43.582;19.528;2022-12-05T11:37:19;6.00;99.90
73360;DHT22;63092;43.582;19.528;2022-12-05T11:39:46;6.00;99.90
73360;DHT22;63092;43.582;19.528;2022-12-05T12:02:06;6.00;99.90
73360;DHT22;63092;43.582;19.528;2022-12-05T12:07:28;6.00;99.90
73360;DHT22;63092;43.582;19.528;2022-12-05T12:12:58;5.90;99.90
73360;DHT22;63092;43.582;19.528;2022-12-05T12:16:00;6.00;99.90
73360;DHT22;63092;43.582;19.528;2022-12-05T12:21:17;6.10;99.90
73360;DHT22;63092;43.582;19.528;2022-12-05T12:26:29;6.30;99.90
73360;DHT22;63092;43.582;19.528;2022-12-05T12:40:48;6.40;99.90
73360;DHT22;63092;43.582;19.528;2022-12-05T12:49:17;6.60;99.90
73360;DHT22;63092;43.582;19.528;2022-12-05T12:52:02;6.60;99.90
73360;DHT22;63092;43.582;19.528;2022-12-05T12:57:31;6.70;99.90
73360;DHT22;63092;43.582;19.528;2022-12-05T13:05:50;6.60;99.90
73360;DHT22;63092;43.582;19.528;2022-12-05T13:08:44;6.50;99.90
73360;DHT22;63092;43.582;19.528;2022-12-05T13:11:13;6.60;99.90
73360;DHT22;63092;43.582;19.528;2022-12-05T13:13:43;6.50;99.90
73360;DHT22;63092;43.582;19.528;2022-12-05T13:16:20;6.60;99.90
73360;DHT22;63092;43.582;19.528;2022-12-05T13:18:48;6.70;99.90
73360;DHT22;63092;43.582;19.528;2022-12-05T13:21:14;6.70;99.90
73360;DHT22;63092;43.582;19.528;2022-12-05T13:23:46;6.80;99.90
73360;DHT22;63092;43.582;19.528;2022-12-05T13:26:13;6.90;99.90
73360;DHT22;63092;43.582;19.528;2022-12-05T13:29:04;6.90;99.90
73360;DHT22;63092;43.582;19.528;2022-12-05T13:31:41;7.00;99.90
73360;DHT22;63092;43.582;19.528;2022-12-05T13:36:58;7.00;99.90
73360;DHT22;63092;43.582;19.528;2022-12-05T13:39:52;7.00;99.90
73360;DHT22;63092;43.582;19.528;2022-12-05T13:42:37;7.10;99.90
73360;DHT22;63092;43.582;19.528;2022-12-05T13:47:41;7.00;99.90
73360;DHT22;63092;43.582;19.528;2022-12-05T13:53:05;7.00;99.90
73360;DHT22;63092;43.582;19.528;2022-12-05T13:55:55;7.10;99.90
73360;DHT22;63092;43.582;19.528;2022-12-05T14:00:47;7.00;99.90
73360;DHT22;63092;43.582;19.528;2022-12-05T14:03:15;7.00;99.90
73360;DHT22;63092;43.582;19.528;2022-12-05T14:05:52;7.00;99.90
73360;DHT22;63092;43.582;19.528;2022-12-05T14:15:52;6.80;99.90
73360;DHT22;63092;43.582;19.528;2022-12-05T14:18:27;6.80;99.90
73360;DHT22;63092;43.582;19.528;2022-12-05T14:21:09;6.80;99.90
73360;DHT22;63092;43.582;19.528;2022-12-05T14:24:17;6.90;99.90
73360;DHT22;63092;43.582;19.528;2022-12-05T14:29:56;6.80;99.90
73360;DHT22;63092;43.582;19.528;2022-12-05T14:32:44;6.90;99.90
73360;DHT22;63092;43.582;19.528;2022-12-05T14:35:29;6.90;99.90
73360;DHT22;63092;43.582;19.528;2022-12-05T14:37:57;6.80;99.90
73360;DHT22;63092;43.582;19.528;2022-12-05T14:40:35;6.70;99.90
73360;DHT22;63092;43.582;19.528;2022-12-05T14:50:44;6.60;99.90
73360;DHT22;63092;43.582;19.528;2022-12-05T14:53:21;6.60;99.90
73360;DHT22;63092;43.582;19.528;2022-12-05T14:55:49;6.60;99.90
73360;DHT22;63092;43.582;19.528;2022-12-05T15:01:02;6.60;99.90
73360;DHT22;63092;43.582;19.528;2022-12-05T15:03:39;6.50;99.90
73360;DHT22;63092;43.582;19.528;2022-12-05T15:06:10;6.50;99.90
73360;DHT22;63092;43.582;19.528;2022-12-05T15:08:48;6.60;99.90
73360;DHT22;63092;43.582;19.528;2022-12-05T15:11:20;6.60;99.90
73360;DHT22;63092;43.582;19.528;2022-12-05T15:14:21;6.60;99.90
73360;DHT22;63092;43.582;19.528;2022-12-05T15:16:50;6.50;99.90
73360;DHT22;63092;43.582;19.528;2022-12-05T15:19:40;6.40;99.90
73360;DHT22;63092;43.582;19.528;2022-12-05T15:22:08;6.40;99.90
73360;DHT22;63092;43.582;19.528;2022-12-05T15:24:37;6.40;99.90
73360;DHT22;63092;43.582;19.528;2022-12-05T15:27:04;6.30;99.90
73360;DHT22;63092;43.582;19.528;2022-12-05T15:29:31;6.30;99.90
73360;DHT22;63092;43.582;19.528;2022-12-05T15:32:13;6.30;99.90
73360;DHT22;63092;43.582;19.528;2022-12-05T15:34:58;6.40;99.90
73360;DHT22;63092;43.582;19.528;2022-12-05T15:42:41;6.40;99.90
73360;DHT22;63092;43.582;19.528;2022-12-05T15:47:51;6.40;99.90
73360;DHT22;63092;43.582;19.528;2022-12-05T15:50:36;6.40;99.90
73360;DHT22;63092;43.582;19.528;2022-12-05T15:59:14;6.40;99.90
73360;DHT22;63092;43.582;19.528;2022-12-05T16:01:50;6.30;99.90
73360;DHT22;63092;43.582;19.528;2022-12-05T16:04:34;6.40;99.90
73360;DHT22;63092;43.582;19.528;2022-12-05T16:07:07;6.50;99.90
73360;DHT22;63092;43.582;19.528;2022-12-05T16:09:39;6.40;99.90
73360;DHT22;63092;43.582;19.528;2022-12-05T16:14:41;6.30;99.90
73360;DHT22;63092;43.582;19.528;2022-12-05T16:17:15;6.30;99.90
73360;DHT22;63092;43.582;19.528;2022-12-05T16:19:41;6.30;99.90
73360;DHT22;63092;43.582;19.528;2022-12-05T16:22:23;6.30;99.90
73360;DHT22;63092;43.582;19.528;2022-12-05T16:25:00;6.30;99.90
73360;DHT22;63092;43.582;19.528;2022-12-05T16:27:35;6.40;99.90
73360;DHT22;63092;43.582;19.528;2022-12-05T16:30:18;6.40;99.90
73360;DHT22;63092;43.582;19.528;2022-12-05T16:32:47;6.40;99.90
73360;DHT22;63092;43.582;19.528;2022-12-05T16:35:32;6.50;99.90
73360;DHT22;63092;43.582;19.528;2022-12-05T16:38:19;6.50;99.90
73360;DHT22;63092;43.582;19.528;2022-12-05T16:48:40;6.60;99.90
73360;DHT22;63092;43.582;19.528;2022-12-05T16:51:16;6.60;99.90
73360;DHT22;63092;43.582;19.528;2022-12-05T16:53:54;6.50;99.90
73360;DHT22;63092;43.582;19.528;2022-12-05T16:58:49;6.50;99.90
73360;DHT22;63092;43.582;19.528;2022-12-05T17:01:21;6.60;99.90
73360;DHT22;63092;43.582;19.528;2022-12-05T17:03:47;6.60;99.90
73360;DHT22;63092;43.582;19.528;2022-12-05T17:06:14;6.60;99.90
73360;DHT22;63092;43.582;19.528;2022-12-05T17:08:40;6.60;99.90
73360;DHT22;63092;43.582;19.528;2022-12-05T17:11:15;6.60;99.90
73360;DHT22;63092;43.582;19.528;2022-12-05T17:13:42;6.60;99.90
73360;DHT22;63092;43.582;19.528;2022-12-05T17:16:09;6.60;99.90
73360;DHT22;63092;43.582;19.528;2022-12-05T17:18:35;6.60;99.90
73360;DHT22;63092;43.582;19.528;2022-12-05T17:21:01;6.60;99.90
73360;DHT22;63092;43.582;19.528;2022-12-05T17:23:27;6.60;99.90
73360;DHT22;63092;43.582;19.528;2022-12-05T17:25:54;6.70;99.90
73360;DHT22;63092;43.582;19.528;2022-12-05T17:28:21;6.70;99.90
73360;DHT22;63092;43.582;19.528;2022-12-05T17:30:47;6.60;99.90
73360;DHT22;63092;43.582;19.528;2022-12-05T17:33:15;6.70;99.90
73360;DHT22;63092;43.582;19.528;2022-12-05T17:35:41;6.70;99.90
73360;DHT22;63092;43.582;19.528;2022-12-05T17:38:07;6.60;99.90
73360;DHT22;63092;43.582;19.528;2022-12-05T17:40:36;6.60;99.90
73360;DHT22;63092;43.582;19.528;2022-12-05T17:43:02;6.60;99.90
73360;DHT22;63092;43.582;19.528;2022-12-05T17:45:28;6.70;99.90
73360;DHT22;63092;43.582;19.528;2022-12-05T17:47:55;6.70;99.90
73360;DHT22;63092;43.582;19.528;2022-12-05T17:50:22;6.70;99.90
73360;DHT22;63092;43.582;19.528;2022-12-05T17:52:49;6.70;99.90
73360;DHT22;63092;43.582;19.528;2022-12-05T17:55:20;6.70;99.90
73360;DHT22;63092;43.582;19.528;2022-12-05T17:57:47;6.60;99.90
73360;DHT22;63092;43.582;19.528;2022-12-05T18:00:14;6.60;99.90
73360;DHT22;63092;43.582;19.528;2022-12-05T18:02:42;6.60;99.90
73360;DHT22;63092;43.582;19.528;2022-12-05T18:05:09;6.60;99.90
73360;DHT22;63092;43.582;19.528;2022-12-05T18:07:35;6.70;99.90
73360;DHT22;63092;43.582;19.528;2022-12-05T18:10:01;6.60;99.90
73360;DHT22;63092;43.582;19.528;2022-12-05T18:12:27;6.60;99.90
73360;DHT22;63092;43.582;19.528;2022-12-05T18:14:53;6.60;99.90
73360;DHT22;63092;43.582;19.528;2022-12-05T18:17:18;6.60;99.90
73360;DHT22;63092;43.582;19.528;2022-12-05T18:19:44;6.60;99.90
73360;DHT22;63092;43.582;19.528;2022-12-05T18:22:10;6.70;99.90
73360;DHT22;63092;43.582;19.528;2022-12-05T18:24:35;6.70;99.90
73360;DHT22;63092;43.582;19.528;2022-12-05T18:27:01;6.70;99.90
73360;DHT22;63092;43.582;19.528;2022-12-05T18:29:27;6.50;99.90
73360;DHT22;63092;43.582;19.528;2022-12-05T18:31:53;6.60;99.90
73360;DHT22;63092;43.582;19.528;2022-12-05T18:34:18;6.60;99.90
73360;DHT22;63092;43.582;19.528;2022-12-05T18:36:44;6.60;99.90
73360;DHT22;63092;43.582;19.528;2022-12-05T18:39:12;6.60;99.90
73360;DHT22;63092;43.582;19.528;2022-12-05T18:41:39;6.60;99.90
73360;DHT22;63092;43.582;19.528;2022-12-05T18:44:05;6.60;99.90
73360;DHT22;63092;43.582;19.528;2022-12-05T18:46:33;6.60;99.90
73360;DHT22;63092;43.582;19.528;2022-12-05T18:48:58;6.60;99.90
73360;DHT22;63092;43.582;19.528;2022-12-05T18:51:24;6.60;99.90
73360;DHT22;63092;43.582;19.528;2022-12-05T18:53:51;6.60;99.90
73360;DHT22;63092;43.582;19.528;2022-12-05T18:56:23;6.50;99.90
73360;DHT22;63092;43.582;19.528;2022-12-05T18:59:01;6.60;99.90
73360;DHT22;63092;43.582;19.528;2022-12-05T19:01:28;6.50;99.90
73360;DHT22;63092;43.582;19.528;2022-12-05T19:03:56;6.60;99.90
73360;DHT22;63092;43.582;19.528;2022-12-05T19:06:24;6.60;99.90
73360;DHT22;63092;43.582;19.528;2022-12-05T19:08:54;6.40;99.90